Time;durP1;ratioP1;P1;durP2;ratioP2;P2;SDS_P1;SDS_P2;PMS_P1;PMS_P2;Temp;Humidity;BMP_temperature;BMP_pressure;BME280_temperature;BME280_humidity;BME280_pressure;Samples;Min_cycle;Max_cycle;Signal;HPM_P1;HPM_P2
2023/06/26 00:01:36;;;;;;;14.80;8.63;;;;;;;;;;5005429;28;20037;-59
2023/06/26 00:04:02;;;;;;;15.23;9.35;;;;;;;;;;5011528;28;20391;-59
2023/06/26 00:06:28;;;;;;;15.77;9.05;;;;;;;;;;5012156;28;20056;-58
2023/06/26 00:08:55;;;;;;;17.17;9.10;;;;;;;;;;5005808;28;20049;-60
2023/06/26 00:11:22;;;;;;;16.08;9.63;;;;;;;;;;5003550;28;20038;-58
2023/06/26 00:13:48;;;;;;;14.77;8.90;;;;;;;;;;5006224;28;20041;-59
2023/06/26 00:16:15;;;;;;;16.65;9.27;;;;;;;;;;5008983;28;20030;-58
2023/06/26 00:18:41;;;;;;;15.38;9.52;;;;;;;;;;5004648;28;20045;-59
2023/06/26 00:21:07;;;;;;;17.58;9.32;;;;;;;;;;5011639;28;20380;-59
2023/06/26 00:23:36;;;;;;;16.30;9.88;;;;;;;;;;5010977;28;20045;-59
2023/06/26 00:26:04;;;;;;;15.48;9.00;;;;;;;;;;5011481;28;20040;-59
2023/06/26 00:28:30;;;;;;;15.20;9.65;;;;;;;;;;5006504;28;20048;-60
2023/06/26 00:30:57;;;;;;;16.17;9.25;;;;;;;;;;5008852;28;20049;-60
2023/06/26 00:33:23;;;;;;;16.90;9.52;;;;;;;;;;5005423;28;20033;-59
2023/06/26 00:35:50;;;;;;;15.77;9.48;;;;;;;;;;5009685;28;20232;-59
2023/06/26 00:38:17;;;;;;;15.77;9.48;;;;;;;;;;5004102;28;20427;-59
2023/06/26 00:40:43;;;;;;;15.23;9.18;;;;;;;;;;5010780;28;20045;-58
2023/06/26 00:43:10;;;;;;;15.30;9.13;;;;;;;;;;5010865;28;20037;-58
2023/06/26 00:45:36;;;;;;;16.63;9.00;;;;;;;;;;5007313;28;20029;-59
2023/06/26 00:48:02;;;;;;;13.90;8.60;;;;;;;;;;4994346;28;20034;-59
2023/06/26 00:50:29;;;;;;;17.73;9.35;;;;;;;;;;5004357;28;20042;-58
2023/06/26 00:53:00;;;;;;;15.15;8.88;;;;;;;;;;5004634;28;20041;-59
2023/06/26 00:55:27;;;;;;;14.02;8.77;;;;;;;;;;5008528;28;20049;-59
2023/06/26 00:57:55;;;;;;;14.63;8.40;;;;;;;;;;5007266;28;20038;-58
2023/06/26 01:00:21;;;;;;;16.98;9.07;;;;;;;;;;5015630;28;20529;-59
2023/06/26 01:02:47;;;;;;;14.98;9.15;;;;;;;;;;5009356;28;20056;-57
2023/06/26 01:05:20;;;;;;;15.95;9.15;;;;;;;;;;5014433;28;20603;-59
2023/06/26 01:07:49;;;;;;;14.38;8.82;;;;;;;;;;5007849;28;20044;-59
2023/06/26 01:10:15;;;;;;;15.93;9.32;;;;;;;;;;5011069;28;20044;-58
2023/06/26 01:12:42;;;;;;;16.25;9.02;;;;;;;;;;5009391;28;20026;-59
2023/06/26 01:15:08;;;;;;;16.92;9.20;;;;;;;;;;5015612;28;20057;-59
2023/06/26 01:17:36;;;;;;;15.25;9.27;;;;;;;;;;5006396;28;20054;-59
2023/06/26 01:20:08;;;;;;;15.23;9.55;;;;;;;;;;5011865;28;20411;-59
2023/06/26 01:22:59;;;;;;;15.43;8.93;;;;;;;;;;5008201;28;20049;-59
2023/06/26 01:25:44;;;;;;;17.63;9.18;;;;;;;;;;5005269;28;20042;-58
2023/06/26 01:28:13;;;;;;;14.95;9.13;;;;;;;;;;5005731;28;20054;-58
2023/06/26 01:30:42;;;;;;;16.85;9.48;;;;;;;;;;5009462;28;20391;-59
2023/06/26 01:33:08;;;;;;;;;;;;;;;;;;5009052;28;20408;-59
2023/06/26 01:35:35;;;;;;;13.25;8.43;;;;;;;;;;5008998;28;19913;-59
2023/06/26 01:38:13;;;;;;;14.73;8.80;;;;;;;;;;5009895;28;20041;-58
2023/06/26 01:40:39;;;;;;;13.93;8.63;;;;;;;;;;5007260;28;20407;-58
2023/06/26 01:43:10;;;;;;;14.68;8.88;;;;;;;;;;5011984;28;20046;-58
2023/06/26 01:45:37;;;;;;;16.02;8.95;;;;;;;;;;5005908;28;20053;-59
2023/06/26 01:48:06;;;;;;;12.32;8.45;;;;;;;;;;5010023;28;20037;-59
2023/06/26 01:50:33;;;;;;;;;;;;;;;;;;5010712;28;20049;-58
2023/06/26 01:53:15;;;;;;;17.23;8.77;;;;;;;;;;5010911;28;19980;-59
2023/06/26 01:55:49;;;;;;;13.43;8.48;;;;;;;;;;5003523;28;20427;-58
2023/06/26 01:58:18;;;;;;;12.23;8.38;;;;;;;;;;4993606;28;20496;-58
2023/06/26 02:00:44;;;;;;;14.95;9.02;;;;;;;;;;5006121;28;20054;-59
2023/06/26 02:03:10;;;;;;;15.20;8.73;;;;;;;;;;5006905;28;20054;-58
2023/06/26 02:05:38;;;;;;;14.25;8.80;;;;;;;;;;4996393;28;20042;-58
2023/06/26 02:08:05;;;;;;;12.95;8.57;;;;;;;;;;5009917;28;20692;-59
2023/06/26 02:10:31;;;;;;;14.32;8.35;;;;;;;;;;5007136;28;20053;-59
2023/06/26 02:12:57;;;;;;;14.20;8.18;;;;;;;;;;5004213;28;20050;-59
2023/06/26 02:15:23;;;;;;;12.63;7.78;;;;;;;;;;4992226;28;20040;-58
2023/06/26 02:17:50;;;;;;;13.80;8.05;;;;;;;;;;5014080;28;20030;-58
2023/06/26 02:20:16;;;;;;;13.65;8.40;;;;;;;;;;5007205;28;20037;-58
2023/06/26 02:22:43;;;;;;;13.65;8.80;;;;;;;;;;5010583;28;20069;-59
2023/06/26 02:25:10;;;;;;;14.18;8.35;;;;;;;;;;5009459;28;20042;-58
2023/06/26 02:27:38;;;;;;;16.85;8.60;;;;;;;;;;5008954;28;20061;-58
2023/06/26 02:30:05;;;;;;;13.80;8.77;;;;;;;;;;5009234;28;20034;-59
2023/06/26 02:32:31;;;;;;;15.45;8.85;;;;;;;;;;5008696;28;20410;-59
2023/06/26 02:34:57;;;;;;;13.20;8.20;;;;;;;;;;5013562;28;20049;-59
2023/06/26 02:37:23;;;;;;;13.77;8.48;;;;;;;;;;5010422;28;20045;-59
2023/06/26 02:39:49;;;;;;;14.35;8.98;;;;;;;;;;5015483;28;20038;-58
2023/06/26 02:42:15;;;;;;;13.77;8.40;;;;;;;;;;5011173;28;20030;-59
2023/06/26 02:44:41;;;;;;;14.88;8.90;;;;;;;;;;4991175;28;20054;-58
2023/06/26 02:47:08;;;;;;;13.50;8.23;;;;;;;;;;5007689;28;20049;-58
2023/06/26 02:49:37;;;;;;;;;;;;;;;;;;5010577;28;20046;-57
2023/06/26 02:52:03;;;;;;;13.70;8.85;;;;;;;;;;5011476;28;19940;-59
2023/06/26 02:54:30;;;;;;;16.20;9.32;;;;;;;;;;5006476;28;20030;-60
2023/06/26 02:57:01;;;;;;;13.25;9.27;;;;;;;;;;5005122;28;20050;-59
2023/06/26 02:59:30;;;;;;;15.93;9.13;;;;;;;;;;5009783;28;20036;-59
2023/06/26 03:01:57;;;;;;;15.70;9.35;;;;;;;;;;5010404;28;20049;-58
2023/06/26 03:04:36;;;;;;;17.92;10.50;;;;;;;;;;5003164;28;20030;-58
2023/06/26 03:07:04;;;;;;;13.85;8.85;;;;;;;;;;5006026;28;20049;-60
2023/06/26 03:09:30;;;;;;;17.17;9.88;;;;;;;;;;5008984;28;20030;-59
2023/06/26 03:11:57;;;;;;;15.70;9.77;;;;;;;;;;5023234;28;20042;-59
2023/06/26 03:14:23;;;;;;;15.02;9.27;;;;;;;;;;5008522;28;20238;-59
2023/06/26 03:16:52;;;;;;;13.88;8.45;;;;;;;;;;5011006;28;20041;-59
2023/06/26 03:19:18;;;;;;;15.13;8.73;;;;;;;;;;5011026;28;20435;-59
2023/06/26 03:22:16;;;;;;;13.90;8.20;;;;;;;;;;4985055;28;20519;-59
2023/06/26 03:24:45;;;;;;;13.88;8.75;;;;;;;;;;5011227;28;20050;-59
2023/06/26 03:27:11;;;;;;;13.13;8.20;;;;;;;;;;5007190;28;20563;-59
2023/06/26 03:29:38;;;;;;;13.30;8.75;;;;;;;;;;5002720;28;20057;-59
2023/06/26 03:32:06;;;;;;;14.93;8.38;;;;;;;;;;4990562;28;20045;-59
2023/06/26 03:34:32;;;;;;;16.35;8.93;;;;;;;;;;5010122;28;20647;-59
2023/06/26 03:36:59;;;;;;;14.38;9.20;;;;;;;;;;5009120;28;20026;-59
2023/06/26 03:39:25;;;;;;;15.88;9.43;;;;;;;;;;4996221;28;20675;-59
2023/06/26 03:41:53;;;;;;;13.07;8.15;;;;;;;;;;5012860;28;20514;-59
2023/06/26 03:44:19;;;;;;;13.63;8.50;;;;;;;;;;5009515;28;20030;-58
2023/06/26 03:46:47;;;;;;;14.32;8.85;;;;;;;;;;5007025;28;20034;-58
2023/06/26 03:49:13;;;;;;;14.65;9.15;;;;;;;;;;5025312;28;20484;-58
2023/06/26 03:51:40;;;;;;;13.35;8.13;;;;;;;;;;4993718;28;20048;-58
2023/06/26 03:54:06;;;;;;;13.90;8.40;;;;;;;;;;5013966;28;20049;-58
2023/06/26 03:56:32;;;;;;;17.40;10.48;;;;;;;;;;5010635;28;20042;-58
2023/06/26 03:58:58;;;;;;;19.83;10.40;;;;;;;;;;5010814;28;20037;-58
2023/06/26 04:01:25;;;;;;;16.27;10.13;;;;;;;;;;5009097;28;20050;-58
2023/06/26 04:03:52;;;;;;;16.33;9.52;;;;;;;;;;5011916;28;20377;-58
2023/06/26 04:06:18;;;;;;;15.95;10.30;;;;;;;;;;5014803;28;20419;-58
2023/06/26 04:08:44;;;;;;;20.95;11.77;;;;;;;;;;5005367;28;20255;-58
2023/06/26 04:11:10;;;;;;;20.02;11.65;;;;;;;;;;5021963;28;20511;-58
2023/06/26 04:13:36;;;;;;;19.23;10.18;;;;;;;;;;5010226;28;20065;-58
2023/06/26 04:16:03;;;;;;;13.82;8.52;;;;;;;;;;5006534;28;20041;-59
2023/06/26 04:18:29;;;;;;;14.68;9.15;;;;;;;;;;5013305;28;20045;-57
2023/06/26 04:21:13;;;;;;;12.15;8.10;;;;;;;;;;5007939;28;20416;-58
2023/06/26 04:23:40;;;;;;;14.88;8.93;;;;;;;;;;5009583;28;20042;-58
2023/06/26 04:26:07;;;;;;;12.77;8.00;;;;;;;;;;5013124;28;20042;-58
2023/06/26 04:28:34;;;;;;;14.38;8.80;;;;;;;;;;5007216;28;20057;-58
2023/06/26 04:31:03;;;;;;;14.13;8.65;;;;;;;;;;5011713;28;20050;-58
2023/06/26 04:33:30;;;;;;;15.48;8.95;;;;;;;;;;5013049;28;20034;-58
2023/06/26 04:35:56;;;;;;;16.15;8.75;;;;;;;;;;5012770;28;20423;-59
2023/06/26 04:38:22;;;;;;;15.60;8.50;;;;;;;;;;5015290;28;20128;-58
2023/06/26 04:40:49;;;;;;;13.95;8.55;;;;;;;;;;5010948;28;20049;-58
2023/06/26 04:43:15;;;;;;;14.15;7.97;;;;;;;;;;5016631;28;20054;-58
2023/06/26 04:45:41;;;;;;;14.25;8.63;;;;;;;;;;5016043;28;20509;-58
2023/06/26 04:48:08;;;;;;;16.38;8.30;;;;;;;;;;5014307;28;20044;-58
2023/06/26 04:50:35;;;;;;;13.57;8.50;;;;;;;;;;5020252;28;20034;-58
2023/06/26 04:53:02;;;;;;;19.45;9.15;;;;;;;;;;5013650;28;20044;-58
2023/06/26 04:55:28;;;;;;;14.10;8.38;;;;;;;;;;5010293;28;20554;-58
2023/06/26 04:57:54;;;;;;;16.05;8.85;;;;;;;;;;5009594;28;20038;-57
2023/06/26 05:00:20;;;;;;;13.90;9.13;;;;;;;;;;5010748;28;20048;-58
2023/06/26 05:02:46;;;;;;;17.15;9.88;;;;;;;;;;5008165;28;20044;-58
2023/06/26 05:05:13;;;;;;;16.20;8.93;;;;;;;;;;5012244;28;20033;-58
2023/06/26 05:07:41;;;;;;;14.32;8.95;;;;;;;;;;5013856;28;20402;-58
2023/06/26 05:10:08;;;;;;;16.13;9.38;;;;;;;;;;5010384;28;20033;-59
2023/06/26 05:12:34;;;;;;;17.08;9.27;;;;;;;;;;5008896;28;20037;-57
2023/06/26 05:15:00;;;;;;;15.77;9.43;;;;;;;;;;5016023;28;20042;-57
2023/06/26 05:17:26;;;;;;;16.40;10.02;;;;;;;;;;5012680;28;20046;-57
2023/06/26 05:19:52;;;;;;;21.98;11.38;;;;;;;;;;5013349;28;20507;-57
2023/06/26 05:22:19;;;;;;;18.73;11.25;;;;;;;;;;5012043;28;20037;-57
2023/06/26 05:24:46;;;;;;;19.92;11.35;;;;;;;;;;5013089;28;20054;-57
2023/06/26 05:27:20;;;;;;;18.55;11.18;;;;;;;;;;5011300;28;20416;-58
2023/06/26 05:29:48;;;;;;;22.83;11.70;;;;;;;;;;5012521;28;20034;-57
2023/06/26 05:32:17;;;;;;;22.08;11.68;;;;;;;;;;5009623;28;20049;-58
2023/06/26 05:34:48;;;;;;;29.13;13.25;;;;;;;;;;5015083;28;20029;-58
2023/06/26 05:37:20;;;;;;;22.67;12.20;;;;;;;;;;5011135;28;20038;-59
2023/06/26 05:39:46;;;;;;;18.13;10.55;;;;;;;;;;5015115;28;20060;-58
2023/06/26 05:42:13;;;;;;;16.80;10.27;;;;;;;;;;5012528;28;20042;-58
2023/06/26 05:44:39;;;;;;;18.58;11.23;;;;;;;;;;5010316;28;20471;-59
2023/06/26 05:47:06;;;;;;;20.15;11.10;;;;;;;;;;5008348;28;20033;-58
2023/06/26 05:49:33;;;;;;;23.45;11.27;;;;;;;;;;5009109;28;20045;-58
2023/06/26 05:51:59;;;;;;;22.13;11.88;;;;;;;;;;5009948;28;20499;-58
2023/06/26 05:54:26;;;;;;;20.55;11.13;;;;;;;;;;5007998;28;20057;-58
2023/06/26 05:56:59;;;;;;;22.40;11.60;;;;;;;;;;5008388;28;20060;-58
2023/06/26 05:59:26;;;;;;;26.25;12.25;;;;;;;;;;5011688;28;20026;-58
2023/06/26 06:01:53;;;;;;;21.50;12.18;;;;;;;;;;5008986;28;20037;-58
2023/06/26 06:04:19;;;;;;;26.23;11.68;;;;;;;;;;5012870;28;20411;-59
2023/06/26 06:06:45;;;;;;;22.65;12.57;;;;;;;;;;5015220;28;20046;-58
2023/06/26 06:09:12;;;;;;;23.80;12.48;;;;;;;;;;5009199;28;20423;-58
2023/06/26 06:11:38;;;;;;;23.75;12.73;;;;;;;;;;5006776;28;20395;-58
2023/06/26 06:14:04;;;;;;;23.80;12.73;;;;;;;;;;5009634;28;20040;-58
2023/06/26 06:16:30;;;;;;;22.42;11.57;;;;;;;;;;5007502;28;20025;-59
2023/06/26 06:18:56;;;;;;;24.08;12.35;;;;;;;;;;5008571;28;20411;-58
2023/06/26 06:21:22;;;;;;;28.00;12.35;;;;;;;;;;5010233;28;20387;-59
2023/06/26 06:23:48;;;;;;;19.67;11.65;;;;;;;;;;5011990;28;20053;-59
2023/06/26 06:26:15;;;;;;;18.05;10.15;;;;;;;;;;5008875;28;20045;-58
2023/06/26 06:28:41;;;;;;;18.45;9.63;;;;;;;;;;5006738;28;20034;-58
2023/06/26 06:31:07;;;;;;;17.83;10.02;;;;;;;;;;5012724;28;20034;-58
2023/06/26 06:33:34;;;;;;;17.50;9.63;;;;;;;;;;5010838;28;20040;-59
2023/06/26 06:36:00;;;;;;;17.55;9.85;;;;;;;;;;5006621;28;20044;-59
2023/06/26 06:38:26;;;;;;;17.02;9.73;;;;;;;;;;5005123;28;20042;-58
2023/06/26 06:40:52;;;;;;;19.70;10.50;;;;;;;;;;5009333;28;20043;-58
2023/06/26 06:43:18;;;;;;;18.08;10.32;;;;;;;;;;5008765;28;20037;-58
2023/06/26 06:45:45;;;;;;;16.33;9.70;;;;;;;;;;5005750;28;20045;-58
2023/06/26 06:48:11;;;;;;;19.38;10.13;;;;;;;;;;5005951;28;20057;-59
2023/06/26 06:50:37;;;;;;;16.20;9.52;;;;;;;;;;5018621;28;20034;-58
2023/06/26 06:53:03;;;;;;;18.25;10.23;;;;;;;;;;5012233;28;20049;-58
2023/06/26 06:55:29;;;;;;;19.58;10.27;;;;;;;;;;5009742;28;20392;-58
2023/06/26 06:57:55;;;;;;;19.00;10.05;;;;;;;;;;5011256;28;20431;-58
2023/06/26 07:00:21;;;;;;;17.88;9.90;;;;;;;;;;5004776;28;20423;-58
2023/06/26 07:02:48;;;;;;;19.30;9.95;;;;;;;;;;5003533;28;20420;-58
2023/06/26 07:05:14;;;;;;;16.38;9.95;;;;;;;;;;5011913;28;20037;-58
2023/06/26 07:07:40;;;;;;;16.45;9.63;;;;;;;;;;5012342;28;20046;-58
2023/06/26 07:10:11;;;;;;;14.68;9.93;;;;;;;;;;5008073;28;20495;-59
2023/06/26 07:12:38;;;;;;;24.13;10.35;;;;;;;;;;5005366;28;20503;-59
2023/06/26 07:15:05;;;;;;;18.23;9.35;;;;;;;;;;5006656;28;20053;-58
2023/06/26 07:17:32;;;;;;;15.65;9.52;;;;;;;;;;5015151;28;20060;-58
2023/06/26 07:19:59;;;;;;;16.73;10.10;;;;;;;;;;5000536;28;20046;-58
2023/06/26 07:22:26;;;;;;;16.08;10.38;;;;;;;;;;5003388;28;20507;-59
2023/06/26 07:24:52;;;;;;;24.10;10.80;;;;;;;;;;5015617;28;20038;-58
2023/06/26 07:27:19;;;;;;;18.42;10.57;;;;;;;;;;5012000;28;20045;-59
2023/06/26 07:29:46;;;;;;;18.95;10.95;;;;;;;;;;5004728;28;20054;-59
2023/06/26 07:32:12;;;;;;;16.33;10.35;;;;;;;;;;5013967;28;20078;-59
2023/06/26 07:34:38;;;;;;;16.48;10.13;;;;;;;;;;5014676;28;20064;-58
2023/06/26 07:37:04;;;;;;;18.90;10.00;;;;;;;;;;5007353;28;20045;-59
2023/06/26 07:39:30;;;;;;;18.55;10.02;;;;;;;;;;5007835;28;20062;-58
2023/06/26 07:41:59;;;;;;;16.17;10.30;;;;;;;;;;5008164;28;20052;-59
2023/06/26 07:44:25;;;;;;;20.30;10.57;;;;;;;;;;5013423;28;20415;-59
2023/06/26 07:46:52;;;;;;;15.50;9.98;;;;;;;;;;5007717;28;20292;-59
2023/06/26 07:49:18;;;;;;;17.02;10.55;;;;;;;;;;5008827;28;20492;-58
2023/06/26 07:51:44;;;;;;;17.95;10.32;;;;;;;;;;5005623;28;20057;-59
2023/06/26 07:54:10;;;;;;;16.80;10.60;;;;;;;;;;5010616;28;20057;-58
2023/06/26 07:56:57;;;;;;;19.10;11.52;;;;;;;;;;5016791;28;20041;-58
2023/06/26 07:59:25;;;;;;;16.70;10.85;;;;;;;;;;5014004;28;20042;-58
2023/06/26 08:01:52;;;;;;;20.77;10.90;;;;;;;;;;5005138;28;20408;-58
2023/06/26 08:04:19;;;;;;;18.58;11.23;;;;;;;;;;5007402;28;20514;-59
2023/06/26 08:06:51;;;;;;;16.48;10.95;;;;;;;;;;5009858;28;20046;-58
2023/06/26 08:09:19;;;;;;;17.95;10.50;;;;;;;;;;5008835;28;20052;-58
2023/06/26 08:11:45;;;;;;;19.55;10.75;;;;;;;;;;5009568;28;20048;-58
2023/06/26 08:14:12;;;;;;;18.23;11.25;;;;;;;;;;5015047;28;20448;-58
2023/06/26 08:16:39;;;;;;;17.08;10.55;;;;;;;;;;5006924;28;20042;-59
2023/06/26 08:19:05;;;;;;;18.00;11.73;;;;;;;;;;5013773;28;20029;-58
2023/06/26 08:21:31;;;;;;;16.90;11.18;;;;;;;;;;5014060;28;20060;-58
2023/06/26 08:23:57;;;;;;;16.58;9.80;;;;;;;;;;5010029;28;20042;-58
2023/06/26 08:26:23;;;;;;;16.75;11.13;;;;;;;;;;5006074;28;20045;-58
2023/06/26 08:28:49;;;;;;;18.83;11.38;;;;;;;;;;5014308;28;20057;-59
2023/06/26 08:31:16;;;;;;;15.93;10.70;;;;;;;;;;5013047;28;20427;-58
2023/06/26 08:33:43;;;;;;;15.88;10.52;;;;;;;;;;5004135;28;20491;-58
2023/06/26 08:36:09;;;;;;;18.75;10.93;;;;;;;;;;5006041;28;20038;-58
2023/06/26 08:38:35;;;;;;;17.45;10.77;;;;;;;;;;5019373;28;20077;-58
2023/06/26 08:41:01;;;;;;;16.05;11.07;;;;;;;;;;5010130;28;20042;-58
2023/06/26 08:43:28;;;;;;;16.83;10.98;;;;;;;;;;5005769;28;20045;-58
2023/06/26 08:45:54;;;;;;;15.73;11.00;;;;;;;;;;5012744;28;20045;-58
2023/06/26 08:48:21;;;;;;;16.48;10.52;;;;;;;;;;5004442;28;20483;-59
2023/06/26 08:50:52;;;;;;;18.83;10.43;;;;;;;;;;5008432;28;20045;-59
2023/06/26 08:53:37;;;;;;;19.88;10.88;;;;;;;;;;5010072;28;20049;-59
2023/06/26 08:56:04;;;;;;;17.83;11.18;;;;;;;;;;5006837;28;20050;-58
2023/06/26 08:58:31;;;;;;;20.00;10.85;;;;;;;;;;5010258;28;20396;-58
2023/06/26 09:00:58;;;;;;;17.20;11.10;;;;;;;;;;5008558;28;20181;-58
2023/06/26 09:03:25;;;;;;;17.15;11.85;;;;;;;;;;5015680;28;20037;-59
2023/06/26 09:05:51;;;;;;;17.88;12.02;;;;;;;;;;5004917;28;20034;-58
2023/06/26 09:08:18;;;;;;;17.02;11.23;;;;;;;;;;5011618;28;20061;-59
2023/06/26 09:10:44;;;;;;;18.58;11.38;;;;;;;;;;5008962;28;20058;-59
2023/06/26 09:13:10;;;;;;;20.63;12.05;;;;;;;;;;5011139;28;20050;-59
2023/06/26 09:15:43;;;;;;;17.23;11.07;;;;;;;;;;5007569;28;20042;-58
2023/06/26 09:18:09;;;;;;;17.63;12.02;;;;;;;;;;5005347;28;20038;-59
2023/06/26 09:20:36;;;;;;;16.88;11.82;;;;;;;;;;5012401;28;20531;-59
2023/06/26 09:23:04;;;;;;;19.10;12.18;;;;;;;;;;5010857;28;20050;-59
2023/06/26 09:25:30;;;;;;;19.00;12.50;;;;;;;;;;5008053;28;20034;-59
2023/06/26 09:27:56;;;;;;;18.90;12.73;;;;;;;;;;5005765;28;20076;-59
2023/06/26 09:30:23;;;;;;;20.27;12.10;;;;;;;;;;5013421;28;20045;-58
2023/06/26 09:32:50;;;;;;;17.63;12.32;;;;;;;;;;5009111;28;20041;-59
2023/06/26 09:35:17;;;;;;;17.60;12.10;;;;;;;;;;5007924;28;20038;-59
2023/06/26 09:37:43;;;;;;;18.20;12.77;;;;;;;;;;5010741;28;20053;-59
2023/06/26 09:40:09;;;;;;;25.35;14.45;;;;;;;;;;5009808;28;20050;-59
2023/06/26 09:42:37;;;;;;;23.48;13.20;;;;;;;;;;5007567;28;20623;-59
2023/06/26 09:45:03;;;;;;;21.38;13.80;;;;;;;;;;5011284;28;20045;-59
2023/06/26 09:47:34;;;;;;;20.85;13.98;;;;;;;;;;5012348;28;20044;-59
2023/06/26 09:50:03;;;;;;;20.92;12.90;;;;;;;;;;5011155;28;20057;-59
2023/06/26 09:52:31;;;;;;;20.08;12.60;;;;;;;;;;5010702;28;20054;-59
2023/06/26 09:55:08;;;;;;;17.97;12.57;;;;;;;;;;5007165;28;20042;-59
2023/06/26 09:57:35;;;;;;;20.95;13.80;;;;;;;;;;5012102;28;20033;-59
2023/06/26 10:00:04;;;;;;;19.95;12.85;;;;;;;;;;5011872;28;20045;-59
2023/06/26 10:02:38;;;;;;;20.13;12.77;;;;;;;;;;5003258;28;20673;-59
2023/06/26 10:05:05;;;;;;;20.40;13.10;;;;;;;;;;5005118;28;20054;-59
2023/06/26 10:07:31;;;;;;;22.92;14.07;;;;;;;;;;5010628;28;20495;-59
2023/06/26 10:09:59;;;;;;;19.08;12.95;;;;;;;;;;5007737;28;20049;-59
2023/06/26 10:12:30;;;;;;;22.80;12.95;;;;;;;;;;5009023;28;20038;-59
2023/06/26 10:14:57;;;;;;;17.80;12.50;;;;;;;;;;5009682;28;20033;-59
2023/06/26 10:17:27;;;;;;;20.87;14.20;;;;;;;;;;5011810;28;20037;-59
2023/06/26 10:19:56;;;;;;;20.23;13.05;;;;;;;;;;5011244;28;20479;-59
2023/06/26 10:22:24;;;;;;;;;;;;;;;;;;5011933;28;20517;-59
2023/06/26 10:24:52;;;;;;;23.40;13.48;;;;;;;;;;5010782;28;19921;-59
2023/06/26 10:27:20;;;;;;;18.97;14.13;;;;;;;;;;5009399;28;20050;-60
2023/06/26 10:29:54;;;;;;;19.58;14.10;;;;;;;;;;5012623;28;20064;-59
2023/06/26 10:32:23;;;;;;;24.40;13.95;;;;;;;;;;5010560;28;20407;-60
2023/06/26 10:34:50;;;;;;;22.52;13.73;;;;;;;;;;5008531;28;20044;-57
2023/06/26 10:37:16;;;;;;;19.83;13.50;;;;;;;;;;5008320;28;20029;-59
2023/06/26 10:39:45;;;;;;;26.42;15.52;;;;;;;;;;5008725;28;20034;-60
2023/06/26 10:42:12;;;;;;;21.55;14.30;;;;;;;;;;5010093;28;20038;-59
2023/06/26 10:44:45;;;;;;;21.70;14.15;;;;;;;;;;5009496;28;20049;-59
2023/06/26 10:47:30;;;;;;;21.30;13.88;;;;;;;;;;5007921;28;20550;-58
2023/06/26 10:49:56;;;;;;;20.23;13.23;;;;;;;;;;5011222;28;20040;-58
2023/06/26 10:52:25;;;;;;;20.75;14.32;;;;;;;;;;5014028;28;20045;-59
2023/06/26 10:54:54;;;;;;;26.80;14.18;;;;;;;;;;5011708;28;20034;-58
2023/06/26 10:57:24;;;;;;;24.23;13.52;;;;;;;;;;5008542;28;20042;-59
2023/06/26 11:00:13;;;;;;;21.88;13.82;;;;;;;;;;5010510;28;20034;-60
2023/06/26 11:02:52;;;;;;;21.17;13.48;;;;;;;;;;5005983;28;20499;-60
2023/06/26 11:05:26;;;;;;;22.45;14.23;;;;;;;;;;5005055;28;20503;-60
2023/06/26 11:08:06;;;;;;;23.38;13.75;;;;;;;;;;5013684;28;20049;-58
2023/06/26 11:11:00;;;;;;;21.95;13.38;;;;;;;;;;5007041;28;20427;-60
2023/06/26 11:13:26;;;;;;;20.50;13.98;;;;;;;;;;5004695;28;20049;-60
2023/06/26 11:15:56;;;;;;;25.25;14.77;;;;;;;;;;5005193;28;20049;-60
2023/06/26 11:18:23;;;;;;;23.55;13.98;;;;;;;;;;5002126;28;20068;-60
2023/06/26 11:20:49;;;;;;;22.35;14.20;;;;;;;;;;5014345;28;20060;-61
2023/06/26 11:23:22;;;;;;;21.15;14.02;;;;;;;;;;5006228;28;20057;-60
2023/06/26 11:25:48;;;;;;;20.23;13.63;;;;;;;;;;5006072;28;20054;-59
2023/06/26 11:28:14;;;;;;;22.90;13.60;;;;;;;;;;5006904;28;20077;-59
2023/06/26 11:30:41;;;;;;;25.52;14.40;;;;;;;;;;5006724;28;20054;-59
2023/06/26 11:33:08;;;;;;;20.42;14.27;;;;;;;;;;5005284;28;20057;-59
2023/06/26 11:35:34;;;;;;;27.38;15.65;;;;;;;;;;5005639;28;20049;-60
2023/06/26 11:38:05;;;;;;;20.45;14.32;;;;;;;;;;5008218;28;20030;-59
2023/06/26 11:40:36;;;;;;;28.60;16.17;;;;;;;;;;5004914;28;20122;-59
2023/06/26 11:43:03;;;;;;;24.10;15.27;;;;;;;;;;5001634;28;20061;-59
2023/06/26 11:45:31;;;;;;;31.80;20.08;;;;;;;;;;5006585;28;20041;-59
2023/06/26 11:47:58;;;;;;;28.98;15.35;;;;;;;;;;5010030;28;20408;-59
2023/06/26 11:50:25;;;;;;;24.67;15.48;;;;;;;;;;5007148;28;20065;-60
2023/06/26 11:52:58;;;;;;;24.23;15.50;;;;;;;;;;5006585;28;20041;-59
2023/06/26 11:55:25;;;;;;;23.33;15.02;;;;;;;;;;5004990;28;20395;-60
2023/06/26 11:57:56;;;;;;;24.52;15.75;;;;;;;;;;5009247;28;20042;-60
2023/06/26 12:00:23;;;;;;;24.85;14.95;;;;;;;;;;5005752;28;20034;-59
2023/06/26 12:02:51;;;;;;;24.80;15.27;;;;;;;;;;5006797;28;20037;-60
2023/06/26 12:05:18;;;;;;;28.05;16.23;;;;;;;;;;5000652;28;20060;-60
2023/06/26 12:07:47;;;;;;;24.52;15.43;;;;;;;;;;5007452;28;20049;-60
2023/06/26 12:10:14;;;;;;;26.67;16.42;;;;;;;;;;5004609;28;20050;-60
2023/06/26 12:12:42;;;;;;;24.88;15.60;;;;;;;;;;5001730;28;20041;-60
2023/06/26 12:15:10;;;;;;;28.65;16.50;;;;;;;;;;5005663;28;20034;-60
2023/06/26 12:17:39;;;;;;;29.70;16.08;;;;;;;;;;5007759;28;20060;-60
2023/06/26 12:20:16;;;;;;;26.30;16.83;;;;;;;;;;5008237;28;20052;-59
2023/06/26 12:22:43;;;;;;;24.87;16.23;;;;;;;;;;5008834;28;20045;-60
2023/06/26 12:25:10;;;;;;;24.07;16.07;;;;;;;;;;5006259;28;20099;-59
2023/06/26 12:27:36;;;;;;;24.38;15.15;;;;;;;;;;5007459;28;20026;-60
2023/06/26 12:30:04;;;;;;;25.05;15.93;;;;;;;;;;5006029;28;20037;-59
2023/06/26 12:32:30;;;;;;;28.87;16.43;;;;;;;;;;4992613;28;20041;-60
2023/06/26 12:34:57;;;;;;;23.45;15.60;;;;;;;;;;5008544;28;20045;-60
2023/06/26 12:37:23;;;;;;;27.85;15.20;;;;;;;;;;5015222;28;20042;-60
2023/06/26 12:39:56;;;;;;;24.73;15.63;;;;;;;;;;5006859;28;20046;-59
2023/06/26 12:42:24;;;;;;;24.20;16.17;;;;;;;;;;5011232;28;20396;-59
2023/06/26 12:44:52;;;;;;;22.38;15.13;;;;;;;;;;5011755;28;20518;-60
2023/06/26 12:47:25;;;;;;;28.83;15.18;;;;;;;;;;5007516;28;20038;-60
2023/06/26 12:49:51;;;;;;;23.02;14.77;;;;;;;;;;5005526;28;20037;-60
2023/06/26 12:52:21;;;;;;;20.77;15.00;;;;;;;;;;5007591;28;20534;-60
2023/06/26 12:54:52;;;;;;;25.85;15.85;;;;;;;;;;5012864;28;20065;-60
2023/06/26 12:57:18;;;;;;;32.63;16.98;;;;;;;;;;5011737;28;20029;-60
2023/06/26 12:59:44;;;;;;;22.63;15.10;;;;;;;;;;5006296;28;20060;-60
2023/06/26 13:02:13;;;;;;;25.17;15.65;;;;;;;;;;5011981;28;20499;-59
2023/06/26 13:04:40;;;;;;;21.45;15.15;;;;;;;;;;5010715;28;20052;-60
2023/06/26 13:07:10;;;;;;;23.08;14.75;;;;;;;;;;5005735;28;20041;-60
2023/06/26 13:09:37;;;;;;;24.27;15.00;;;;;;;;;;5009809;28;20030;-60
2023/06/26 13:12:04;;;;;;;24.83;15.38;;;;;;;;;;5009099;28;20514;-60
2023/06/26 13:14:31;;;;;;;21.57;15.23;;;;;;;;;;5009736;28;20052;-60
2023/06/26 13:16:57;;;;;;;21.25;14.60;;;;;;;;;;5007212;28;20411;-59
2023/06/26 13:19:23;;;;;;;27.10;14.52;;;;;;;;;;5010368;28;20127;-60
2023/06/26 13:21:49;;;;;;;24.40;15.02;;;;;;;;;;5010403;28;20042;-60
2023/06/26 13:24:15;;;;;;;21.50;14.93;;;;;;;;;;5013259;28;20056;-60
2023/06/26 13:26:42;;;;;;;26.60;15.18;;;;;;;;;;5013147;28;20060;-60
2023/06/26 13:29:08;;;;;;;23.52;14.05;;;;;;;;;;5010815;28;20034;-60
2023/06/26 13:31:34;;;;;;;21.10;14.63;;;;;;;;;;5007484;28;20037;-60
2023/06/26 13:34:03;;;;;;;26.08;14.98;;;;;;;;;;5009384;28;20391;-60
2023/06/26 13:36:29;;;;;;;21.00;14.57;;;;;;;;;;5007293;28;20057;-60
2023/06/26 13:38:55;;;;;;;21.77;14.93;;;;;;;;;;5010501;28;20041;-60
2023/06/26 13:41:23;;;;;;;21.58;13.73;;;;;;;;;;5006015;28;20509;-59
2023/06/26 13:43:49;;;;;;;21.92;13.77;;;;;;;;;;5007279;28;20042;-59
2023/06/26 13:46:16;;;;;;;22.73;13.70;;;;;;;;;;5013216;28;20506;-60
2023/06/26 13:48:42;;;;;;;22.48;14.05;;;;;;;;;;5015099;28;20398;-60
2023/06/26 13:51:08;;;;;;;20.95;14.23;;;;;;;;;;5008495;28;20042;-60
2023/06/26 13:53:34;;;;;;;26.38;14.32;;;;;;;;;;5007458;28;20049;-60
2023/06/26 13:56:00;;;;;;;26.85;15.50;;;;;;;;;;5007519;28;20111;-60
2023/06/26 13:58:28;;;;;;;22.30;14.27;;;;;;;;;;5009295;28;20061;-60
2023/06/26 14:00:54;;;;;;;27.50;15.77;;;;;;;;;;4999829;28;20038;-60
2023/06/26 14:03:20;;;;;;;27.02;14.45;;;;;;;;;;5008536;28;20046;-60
2023/06/26 14:05:46;;;;;;;22.52;14.10;;;;;;;;;;5008287;28;20052;-61
2023/06/26 14:08:12;;;;;;;22.40;14.23;;;;;;;;;;5008871;28;20045;-60
2023/06/26 14:10:39;;;;;;;24.27;13.90;;;;;;;;;;5004176;28;20054;-60
2023/06/26 14:13:05;;;;;;;23.98;14.52;;;;;;;;;;5008944;28;20511;-60
2023/06/26 14:15:32;;;;;;;21.60;13.90;;;;;;;;;;5009066;28;20041;-60
2023/06/26 14:17:59;;;;;;;26.73;15.50;;;;;;;;;;5009388;28;20067;-60
2023/06/26 14:20:25;;;;;;;22.67;14.00;;;;;;;;;;5006298;28;20666;-60
2023/06/26 14:22:51;;;;;;;24.80;14.45;;;;;;;;;;5006726;28;20045;-59
2023/06/26 14:25:17;;;;;;;21.85;13.63;;;;;;;;;;5012061;28;20041;-59
2023/06/26 14:27:43;;;;;;;22.00;13.55;;;;;;;;;;5007784;28;20038;-59